sim
Sign-in with your pilot id or email,
or register
Callsign
Passwort

Schedule Details

Flight Number: EWG90 (1)
Departure: Cologne Bonn Airport (EDDK) at 16:15
Arrival: Munich Airport (EDDM) at 17:25
Route: Eurowings Passenger Schedule. Enter filed route here before submitting Pirep.

Weather Information
Getting current METAR information for EDDK 211250Z VRB03KT CAVOK 26/07 Q1015 NOSIG
Getting current METAR information for EDDM 211250Z 03004KT 340V140 CAVOK 23/12 Q1016 NOSIG

Schedule Frequency

Route Map